Time;durP1;ratioP1;P1;durP2;ratioP2;P2;SDS_P1;SDS_P2;PMS_P1;PMS_P2;Temp;Humidity;BMP_temperature;BMP_pressure;BME280_temperature;BME280_humidity;BME280_pressure;Samples;Min_cycle;Max_cycle;Signal;HPM_P1;HPM_P2
2023/03/05 00:01:24;;;;;;;2.40;0.70;;;;;;;;;;6187985;23;20050;-78
2023/03/05 00:03:51;;;;;;;5.80;1.38;;;;;;;;;;6187897;23;20003;-78
2023/03/05 00:06:17;;;;;;;4.25;0.50;;;;;;;;;;6187802;23;20005;-78
2023/03/05 00:08:43;;;;;;;3.40;0.50;;;;;;;;;;6187532;23;20424;-78
2023/03/05 00:11:10;;;;;;;5.18;0.63;;;;;;;;;;6187148;23;20462;-78
2023/03/05 00:13:37;;;;;;;5.63;0.70;;;;;;;;;;6186856;23;20051;-78
2023/03/05 00:16:04;;;;;;;5.03;0.70;;;;;;;;;;6187573;23;20076;-78
2023/03/05 00:18:30;;;;;;;3.88;0.57;;;;;;;;;;6187158;23;20009;-78
2023/03/05 00:20:56;;;;;;;3.08;0.40;;;;;;;;;;6187287;23;20065;-78
2023/03/05 00:23:22;;;;;;;4.28;0.50;;;;;;;;;;6187318;23;20419;-78
2023/03/05 00:25:48;;;;;;;5.20;1.48;;;;;;;;;;6186838;23;20008;-78
2023/03/05 00:28:14;;;;;;;1.52;0.38;;;;;;;;;;6187756;23;20060;-78
2023/03/05 00:30:40;;;;;;;2.05;0.40;;;;;;;;;;6188458;23;20028;-78
2023/03/05 00:33:06;;;;;;;4.78;0.77;;;;;;;;;;6187206;23;20320;-78
2023/03/05 00:35:38;;;;;;;4.80;0.68;;;;;;;;;;6186891;23;20008;-78
2023/03/05 00:38:04;;;;;;;3.05;0.57;;;;;;;;;;6187493;23;20060;-78
2023/03/05 00:40:30;;;;;;;3.88;0.50;;;;;;;;;;6187297;23;20001;-78
2023/03/05 00:43:04;;;;;;;3.45;0.52;;;;;;;;;;6187747;23;20008;-78
2023/03/05 00:45:30;;;;;;;3.78;0.50;;;;;;;;;;6187540;23;20072;-78
2023/03/05 00:47:58;;;;;;;1.92;0.40;;;;;;;;;;6187660;23;20084;-78
2023/03/05 00:50:25;;;;;;;2.88;0.45;;;;;;;;;;6187813;23;20039;-78
2023/03/05 00:52:51;;;;;;;2.60;0.55;;;;;;;;;;6189223;23;20001;-78
2023/03/05 00:55:17;;;;;;;3.88;0.77;;;;;;;;;;6188847;23;20020;-78
2023/03/05 00:57:43;;;;;;;1.25;0.32;;;;;;;;;;6189309;23;20436;-78
2023/03/05 01:00:09;;;;;;;2.67;0.60;;;;;;;;;;6189537;23;20004;-78
2023/03/05 01:02:35;;;;;;;3.95;0.75;;;;;;;;;;6190096;23;19993;-78
2023/03/05 01:05:01;;;;;;;2.45;0.57;;;;;;;;;;6189522;23;20079;-78
2023/03/05 01:07:27;;;;;;;3.13;0.55;;;;;;;;;;6189030;23;20351;-78
2023/03/05 01:09:53;;;;;;;2.38;0.40;;;;;;;;;;6188767;23;20007;-78
2023/03/05 01:12:19;;;;;;;2.70;0.60;;;;;;;;;;6162282;23;20056;-78
2023/03/05 01:14:45;;;;;;;1.98;0.60;;;;;;;;;;6188419;23;20426;-78
2023/03/05 01:17:11;;;;;;;2.92;0.40;;;;;;;;;;6188442;23;20028;-78
2023/03/05 01:19:37;;;;;;;2.35;0.32;;;;;;;;;;6188343;23;20001;-78
2023/03/05 01:22:03;;;;;;;1.38;0.50;;;;;;;;;;6189210;23;20000;-78
2023/03/05 01:24:32;;;;;;;2.42;0.70;;;;;;;;;;6188678;23;20001;-78
2023/03/05 01:26:58;;;;;;;1.75;0.50;;;;;;;;;;6188551;23;19997;-78
2023/03/05 01:29:30;;;;;;;2.85;0.47;;;;;;;;;;6189240;23;20032;-78
2023/03/05 01:31:56;;;;;;;3.78;0.47;;;;;;;;;;6188960;23;20392;-78
2023/03/05 01:34:22;;;;;;;2.03;0.50;;;;;;;;;;6188151;23;20408;-78
2023/03/05 01:36:49;;;;;;;2.47;0.50;;;;;;;;;;6188305;23;20012;-78
2023/03/05 01:39:15;;;;;;;2.75;0.38;;;;;;;;;;6188888;23;20019;-78
2023/03/05 01:41:41;;;;;;;0.60;0.30;;;;;;;;;;6188746;23;20001;-78
2023/03/05 01:44:15;;;;;;;6.72;1.10;;;;;;;;;;6162257;23;20005;-78
2023/03/05 01:46:41;;;;;;;2.97;0.52;;;;;;;;;;6188181;23;20005;-78
2023/03/05 01:49:13;;;;;;;1.15;0.40;;;;;;;;;;6187869;23;20005;-78
2023/03/05 01:51:46;;;;;;;0.50;0.10;;;;;;;;;;6187665;23;20284;-78
2023/03/05 01:54:14;;;;;;;1.67;0.55;;;;;;;;;;6187013;23;20021;-78
2023/03/05 01:56:40;;;;;;;1.27;0.10;;;;;;;;;;6187410;23;20008;-78
2023/03/05 01:59:07;;;;;;;0.08;0.08;;;;;;;;;;6187275;23;20149;-77
2023/03/05 02:01:36;;;;;;;0.10;0.10;;;;;;;;;;6186887;23;19993;-78
2023/03/05 02:04:02;;;;;;;2.38;0.65;;;;;;;;;;6187235;23;20396;-78
2023/03/05 02:06:29;;;;;;;1.77;0.30;;;;;;;;;;6187133;23;20001;-78
2023/03/05 02:08:55;;;;;;;3.20;0.55;;;;;;;;;;6187047;23;20001;-78
2023/03/05 02:14:24;;;;;;;2.83;0.30;;;;;;;;;;6187385;23;20016;-78
2023/03/05 02:16:50;;;;;;;3.67;0.57;;;;;;;;;;6187135;23;20435;-77
2023/03/05 02:19:16;;;;;;;2.15;0.45;;;;;;;;;;6186992;23;20001;-78
2023/03/05 02:21:44;;;;;;;1.10;0.30;;;;;;;;;;6187309;23;20004;-78
2023/03/05 02:24:30;;;;;;;1.45;0.40;;;;;;;;;;6188481;23;20297;-78
2023/03/05 02:26:55;;;;;;;3.67;0.47;;;;;;;;;;6189380;23;20004;-78
2023/03/05 02:29:22;;;;;;;2.47;0.40;;;;;;;;;;6189358;23;20009;-78
2023/03/05 02:31:48;;;;;;;1.63;0.60;;;;;;;;;;6187426;23;19993;-78
2023/03/05 02:34:14;;;;;;;1.77;0.30;;;;;;;;;;6187320;23;20391;-78
2023/03/05 02:36:40;;;;;;;3.20;0.60;;;;;;;;;;6186940;23;19997;-78
2023/03/05 02:39:06;;;;;;;3.55;0.50;;;;;;;;;;6186954;23;20090;-78
2023/03/05 02:41:32;;;;;;;1.38;0.30;;;;;;;;;;6187028;23;20347;-78
2023/03/05 02:43:58;;;;;;;2.67;0.40;;;;;;;;;;6187385;23;20004;-78
2023/03/05 02:46:24;;;;;;;3.15;0.73;;;;;;;;;;6160249;23;20005;-78
2023/03/05 02:48:50;;;;;;;1.85;0.30;;;;;;;;;;6186769;23;20005;-78
2023/03/05 02:51:16;;;;;;;4.47;0.68;;;;;;;;;;6186891;23;20024;-78
2023/03/05 02:53:42;;;;;;;3.28;0.50;;;;;;;;;;6186377;23;20025;-78
2023/03/05 02:56:20;;;;;;;1.13;0.43;;;;;;;;;;6186763;23;20092;-78
2023/03/05 02:58:46;;;;;;;1.77;0.40;;;;;;;;;;6186919;23;20075;-78
2023/03/05 03:01:12;;;;;;;1.77;0.50;;;;;;;;;;6186955;23;20361;-78
2023/03/05 03:03:38;;;;;;;1.77;0.40;;;;;;;;;;6186899;23;20001;-78
2023/03/05 03:06:04;;;;;;;5.07;0.52;;;;;;;;;;6186858;23;19997;-78
2023/03/05 03:08:30;;;;;;;2.08;0.47;;;;;;;;;;6187094;23;20144;-78
2023/03/05 03:11:03;;;;;;;2.60;0.60;;;;;;;;;;6186524;23;20474;-78
2023/03/05 03:13:29;;;;;;;3.53;0.43;;;;;;;;;;6186355;23;20001;-78
2023/03/05 03:16:02;;;;;;;1.88;0.40;;;;;;;;;;6186395;23;20052;-77
2023/03/05 03:18:28;;;;;;;0.93;0.60;;;;;;;;;;6186505;23;20060;-78
2023/03/05 03:20:54;;;;;;;2.80;0.55;;;;;;;;;;6186514;23;19993;-78
2023/03/05 03:23:20;;;;;;;3.05;0.73;;;;;;;;;;6186579;23;19997;-77
2023/03/05 03:25:46;;;;;;;1.50;0.40;;;;;;;;;;6186442;23;20033;-78
2023/03/05 03:28:12;;;;;;;3.47;0.70;;;;;;;;;;6186314;23;20001;-78
2023/03/05 03:30:38;;;;;;;1.80;0.50;;;;;;;;;;6186700;23;19997;-78
2023/03/05 03:33:04;;;;;;;4.88;0.55;;;;;;;;;;6186309;23;20316;-78
2023/03/05 03:35:30;;;;;;;1.50;0.70;;;;;;;;;;6186265;23;20033;-78
2023/03/05 03:38:14;;;;;;;1.35;0.68;;;;;;;;;;6160001;23;20567;-78
2023/03/05 03:43:45;;;;;;;1.85;0.35;;;;;;;;;;6186605;23;20096;-78
2023/03/05 03:46:11;;;;;;;4.32;0.77;;;;;;;;;;6186672;23;20012;-78
2023/03/05 03:48:37;;;;;;;5.88;0.70;;;;;;;;;;6186480;23;20001;-77
2023/03/05 03:51:06;;;;;;;2.75;0.38;;;;;;;;;;6186363;23;19993;-78
2023/03/05 03:53:33;;;;;;;3.45;0.45;;;;;;;;;;6186038;23;20027;-78
2023/03/05 03:55:59;;;;;;;2.22;0.57;;;;;;;;;;6186482;23;20001;-78
2023/03/05 03:58:25;;;;;;;1.15;0.50;;;;;;;;;;6186171;23;20005;-78
2023/03/05 04:00:51;;;;;;;1.13;0.73;;;;;;;;;;6186715;23;20006;-78
2023/03/05 04:03:17;;;;;;;4.72;0.80;;;;;;;;;;6186297;23;20372;-78
2023/03/05 04:05:43;;;;;;;2.40;0.40;;;;;;;;;;6186481;23;20008;-77
2023/03/05 04:08:10;;;;;;;4.50;0.57;;;;;;;;;;6186264;23;20005;-78
2023/03/05 04:10:38;;;;;;;2.15;0.38;;;;;;;;;;6186369;23;20344;-78
2023/03/05 04:13:04;;;;;;;1.08;0.50;;;;;;;;;;6186321;23;20001;-77
2023/03/05 04:15:30;;;;;;;2.75;0.38;;;;;;;;;;6186041;23;20068;-78
2023/03/05 04:17:56;;;;;;;2.42;0.47;;;;;;;;;;6186185;23;20013;-78
2023/03/05 04:20:40;;;;;;;2.55;0.50;;;;;;;;;;6186034;23;20135;-78
2023/03/05 04:23:07;;;;;;;2.05;0.38;;;;;;;;;;6186185;23;19998;-78
2023/03/05 04:25:33;;;;;;;1.50;0.60;;;;;;;;;;6159767;23;20016;-78
2023/03/05 04:27:59;;;;;;;2.33;0.30;;;;;;;;;;6186066;23;20005;-77
2023/03/05 04:30:25;;;;;;;3.20;0.40;;;;;;;;;;6186620;23;19993;-78
2023/03/05 04:32:51;;;;;;;3.88;0.82;;;;;;;;;;6185984;23;20076;-77
2023/03/05 04:35:17;;;;;;;1.50;0.20;;;;;;;;;;6159782;23;20639;-77
2023/03/05 04:37:43;;;;;;;0.75;0.30;;;;;;;;;;6185981;23;20037;-78
2023/03/05 04:40:09;;;;;;;1.92;0.22;;;;;;;;;;6185952;23;20001;-78
2023/03/05 04:42:35;;;;;;;4.20;0.50;;;;;;;;;;6159884;23;20531;-78
2023/03/05 04:45:01;;;;;;;2.30;0.40;;;;;;;;;;6186132;23;20029;-78
2023/03/05 04:47:27;;;;;;;1.02;0.30;;;;;;;;;;6185772;23;20007;-77
2023/03/05 04:49:53;;;;;;;3.15;0.50;;;;;;;;;;6186035;23;20362;-77
2023/03/05 04:52:19;;;;;;;2.92;0.50;;;;;;;;;;6185855;23;20024;-78
2023/03/05 04:54:45;;;;;;;3.58;0.50;;;;;;;;;;6185634;23;20076;-78
2023/03/05 04:57:11;;;;;;;0.77;0.22;;;;;;;;;;6185748;23;19994;-78
2023/03/05 04:59:38;;;;;;;4.07;0.30;;;;;;;;;;6186040;23;20024;-78
2023/03/05 05:02:04;;;;;;;2.63;0.63;;;;;;;;;;6185828;23;20068;-78
2023/03/05 05:04:30;;;;;;;1.35;0.22;;;;;;;;;;6185958;23;19997;-78
2023/03/05 05:07:06;;;;;;;4.20;0.45;;;;;;;;;;6186597;23;20408;-78
2023/03/05 05:09:32;;;;;;;0.57;0.28;;;;;;;;;;6186134;23;20424;-77
2023/03/05 05:11:58;;;;;;;4.78;0.50;;;;;;;;;;6185912;23;19993;-77
2023/03/05 05:14:24;;;;;;;4.10;0.43;;;;;;;;;;6185596;23;20073;-77
2023/03/05 05:16:50;;;;;;;3.33;0.68;;;;;;;;;;6185803;23;20024;-77
2023/03/05 05:19:16;;;;;;;4.28;1.27;;;;;;;;;;6185509;23;20008;-78
2023/03/05 05:21:42;;;;;;;2.58;0.60;;;;;;;;;;6185598;23;20473;-78
2023/03/05 05:24:08;;;;;;;2.05;0.40;;;;;;;;;;6185618;23;20001;-77
2023/03/05 05:26:34;;;;;;;5.15;0.63;;;;;;;;;;6185553;23;20055;-78
2023/03/05 05:29:00;;;;;;;1.85;0.40;;;;;;;;;;6185495;23;20037;-78
2023/03/05 05:31:26;;;;;;;2.60;0.60;;;;;;;;;;6185923;23;20067;-78
2023/03/05 05:33:52;;;;;;;5.00;0.47;;;;;;;;;;6185680;23;20016;-77
2023/03/05 05:36:21;;;;;;;3.47;0.65;;;;;;;;;;6185693;23;20008;-78
2023/03/05 05:38:47;;;;;;;5.32;0.43;;;;;;;;;;6187600;23;20016;-78
2023/03/05 05:41:14;;;;;;;1.27;0.20;;;;;;;;;;6187724;23;20347;-78
2023/03/05 05:43:40;;;;;;;1.35;0.47;;;;;;;;;;6189777;23;19997;-77
2023/03/05 05:46:13;;;;;;;3.63;1.15;;;;;;;;;;6187473;23;20068;-77
2023/03/05 05:49:12;;;;;;;1.30;0.35;;;;;;;;;;6161087;23;20001;-78
2023/03/05 05:51:38;;;;;;;2.45;0.80;;;;;;;;;;6187353;23;19997;-78
2023/03/05 05:54:04;;;;;;;1.67;0.30;;;;;;;;;;6186850;23;20017;-78
2023/03/05 05:56:30;;;;;;;3.50;0.45;;;;;;;;;;6187112;23;20005;-78
2023/03/05 05:58:56;;;;;;;1.20;0.25;;;;;;;;;;6187113;23;20035;-78
2023/03/05 06:01:25;;;;;;;1.70;0.38;;;;;;;;;;6187274;23;20001;-78
2023/03/05 06:03:51;;;;;;;4.30;0.38;;;;;;;;;;6187506;23;20013;-78
2023/03/05 06:06:19;;;;;;;0.85;0.40;;;;;;;;;;6187180;23;20339;-77
2023/03/05 06:08:45;;;;;;;0.98;0.20;;;;;;;;;;6187072;23;20001;-78
2023/03/05 06:11:11;;;;;;;2.38;0.30;;;;;;;;;;6187062;23;20004;-78
2023/03/05 06:13:38;;;;;;;0.47;0.22;;;;;;;;;;6186988;23;19997;-78
2023/03/05 06:16:06;;;;;;;0.20;0.20;;;;;;;;;;6187123;23;20025;-77
2023/03/05 06:18:33;;;;;;;4.00;0.35;;;;;;;;;;6186938;23;20040;-78
2023/03/05 06:21:06;;;;;;;1.38;0.40;;;;;;;;;;6187097;23;20047;-77
2023/03/05 06:23:33;;;;;;;1.92;0.40;;;;;;;;;;6186807;23;20051;-78
2023/03/05 06:26:00;;;;;;;0.63;0.13;;;;;;;;;;6186966;23;20005;-78
2023/03/05 06:28:26;;;;;;;1.75;0.40;;;;;;;;;;6186999;23;20008;-78
2023/03/05 06:31:11;;;;;;;2.42;0.38;;;;;;;;;;6188797;23;20005;-77
2023/03/05 06:33:37;;;;;;;2.70;0.32;;;;;;;;;;6187070;23;19994;-77
2023/03/05 06:36:07;;;;;;;2.33;0.88;;;;;;;;;;6186898;23;19993;-78
2023/03/05 06:38:34;;;;;;;1.77;0.60;;;;;;;;;;6186785;23;20028;-78
2023/03/05 06:41:01;;;;;;;1.33;0.40;;;;;;;;;;6186664;23;20047;-78
2023/03/05 06:43:27;;;;;;;2.70;0.57;;;;;;;;;;6160629;23;20005;-78
2023/03/05 06:46:03;;;;;;;1.13;0.60;;;;;;;;;;6186985;23;20052;-78
2023/03/05 06:48:29;;;;;;;4.47;0.47;;;;;;;;;;6187310;23;20009;-78
2023/03/05 06:50:55;;;;;;;5.07;0.65;;;;;;;;;;6187945;23;19997;-78
2023/03/05 06:53:23;;;;;;;3.15;0.70;;;;;;;;;;6186370;23;20001;-78
2023/03/05 06:55:49;;;;;;;3.85;0.45;;;;;;;;;;6188459;23;20028;-78
2023/03/05 06:58:15;;;;;;;1.80;0.70;;;;;;;;;;6187521;23;20301;-78
2023/03/05 07:00:41;;;;;;;1.63;0.38;;;;;;;;;;6186590;23;20036;-77
2023/03/05 07:03:06;;;;;;;3.22;0.57;;;;;;;;;;6186981;23;20407;-78
2023/03/05 07:05:32;;;;;;;1.83;0.63;;;;;;;;;;6186831;23;20001;-78
2023/03/05 07:07:58;;;;;;;3.40;1.20;;;;;;;;;;6186668;23;20005;-78
2023/03/05 07:10:24;;;;;;;1.75;0.60;;;;;;;;;;6186508;23;20001;-77
2023/03/05 07:12:53;;;;;;;4.93;0.52;;;;;;;;;;6186341;23;20396;-77
2023/03/05 07:15:20;;;;;;;1.73;0.35;;;;;;;;;;6186595;23;20080;-78
2023/03/05 07:17:46;;;;;;;9.85;0.73;;;;;;;;;;6186370;23;20416;-77
2023/03/05 07:20:12;;;;;;;2.58;0.50;;;;;;;;;;6186256;23;20046;-77
2023/03/05 07:22:38;;;;;;;3.65;0.40;;;;;;;;;;6186209;23;20380;-78
2023/03/05 07:25:04;;;;;;;1.98;0.50;;;;;;;;;;6186383;23;20085;-77
2023/03/05 07:27:33;;;;;;;2.35;0.60;;;;;;;;;;6186255;23;20008;-77
2023/03/05 07:29:59;;;;;;;3.20;0.38;;;;;;;;;;6185957;23;20027;-78
2023/03/05 07:32:25;;;;;;;1.05;0.40;;;;;;;;;;6186328;23;20356;-77
2023/03/05 07:34:51;;;;;;;2.28;0.70;;;;;;;;;;6186136;23;20004;-77
2023/03/05 07:37:17;;;;;;;3.22;0.90;;;;;;;;;;6186364;23;19997;-78
2023/03/05 07:39:43;;;;;;;4.03;1.10;;;;;;;;;;6186420;23;20387;-78
2023/03/05 07:42:09;;;;;;;4.00;1.80;;;;;;;;;;6185447;23;19997;-76
2023/03/05 07:44:37;;;;;;;5.70;3.00;;;;;;;;;;6185374;23;20009;-77
2023/03/05 07:47:03;;;;;;;3.88;2.50;;;;;;;;;;6185658;23;20001;-77
2023/03/05 07:49:29;;;;;;;13.10;5.65;;;;;;;;;;6185201;23;20008;-76
2023/03/05 07:51:55;;;;;;;15.13;7.13;;;;;;;;;;6185083;23;20001;-76
2023/03/05 07:54:21;;;;;;;8.70;4.55;;;;;;;;;;6185388;23;20021;-77
2023/03/05 07:56:48;;;;;;;6.35;3.45;;;;;;;;;;6185491;23;20000;-77
2023/03/05 07:59:14;;;;;;;4.78;1.45;;;;;;;;;;6185659;23;20009;-77
2023/03/05 08:01:40;;;;;;;2.72;0.70;;;;;;;;;;6185643;23;20001;-77
2023/03/05 08:04:09;;;;;;;2.28;0.68;;;;;;;;;;6185363;23;20323;-77
2023/03/05 08:06:38;;;;;;;3.13;0.68;;;;;;;;;;6185909;23;19997;-77
2023/03/05 08:09:04;;;;;;;2.08;0.60;;;;;;;;;;6185396;23;20004;-77
2023/03/05 08:11:30;;;;;;;4.38;1.02;;;;;;;;;;6185611;23;20001;-77
2023/03/05 08:13:58;;;;;;;5.20;0.43;;;;;;;;;;6185332;23;20435;-77
2023/03/05 08:16:25;;;;;;;1.40;0.40;;;;;;;;;;6185940;23;20001;-77
2023/03/05 08:18:53;;;;;;;5.15;0.60;;;;;;;;;;6185504;23;20092;-77
2023/03/05 08:21:20;;;;;;;2.85;0.50;;;;;;;;;;6185409;23;20019;-77
2023/03/05 08:23:46;;;;;;;3.00;0.35;;;;;;;;;;6185362;23;20084;-77
2023/03/05 08:26:15;;;;;;;1.85;0.25;;;;;;;;;;6185554;23;20007;-77
2023/03/05 08:28:47;;;;;;;1.92;0.40;;;;;;;;;;6185404;23;20009;-77
2023/03/05 08:31:13;;;;;;;3.38;0.50;;;;;;;;;;6185459;23;20292;-77
2023/03/05 08:33:40;;;;;;;2.20;0.40;;;;;;;;;;6185388;23;20076;-77
2023/03/05 08:36:07;;;;;;;2.55;0.50;;;;;;;;;;6185427;23;19997;-77
2023/03/05 08:38:33;;;;;;;4.22;0.57;;;;;;;;;;6187792;23;20009;-79
2023/03/05 08:40:59;;;;;;;3.08;0.38;;;;;;;;;;6195328;23;20001;-79
2023/03/05 08:43:25;;;;;;;2.30;0.32;;;;;;;;;;6190965;23;20001;-79
2023/03/05 08:45:52;;;;;;;2.88;0.30;;;;;;;;;;6187132;23;20004;-77
2023/03/05 08:48:18;;;;;;;1.67;0.30;;;;;;;;;;6185432;23;20037;-77
2023/03/05 08:50:44;;;;;;;5.15;0.40;;;;;;;;;;6185213;23;20068;-77
2023/03/05 08:53:10;;;;;;;1.88;0.45;;;;;;;;;;6185888;23;20031;-78
2023/03/05 08:55:37;;;;;;;0.40;0.28;;;;;;;;;;6186367;23;20017;-78
2023/03/05 08:58:03;;;;;;;2.92;0.45;;;;;;;;;;6186184;23;20013;-78
2023/03/05 09:00:29;;;;;;;2.92;0.40;;;;;;;;;;6185940;23;19993;-78
2023/03/05 09:02:55;;;;;;;4.15;0.73;;;;;;;;;;6185464;23;20001;-78
2023/03/05 09:05:21;;;;;;;2.10;0.40;;;;;;;;;;6185534;23;20002;-77
2023/03/05 09:07:47;;;;;;;6.90;0.77;;;;;;;;;;6185533;23;20087;-77
2023/03/05 09:10:13;;;;;;;3.03;0.40;;;;;;;;;;6185204;23;20391;-78
2023/03/05 09:12:40;;;;;;;0.88;0.30;;;;;;;;;;6187232;23;20057;-77
2023/03/05 09:15:07;;;;;;;1.83;0.43;;;;;;;;;;6187037;23;20028;-77
2023/03/05 09:17:34;;;;;;;5.15;0.65;;;;;;;;;;6186773;23;20288;-77
2023/03/05 09:20:00;;;;;;;5.75;0.70;;;;;;;;;;6187014;23;19997;-77
2023/03/05 09:22:26;;;;;;;5.93;1.20;;;;;;;;;;6187060;23;20084;-77
2023/03/05 09:24:52;;;;;;;2.75;0.45;;;;;;;;;;6186429;23;20083;-77
2023/03/05 09:27:18;;;;;;;1.00;0.30;;;;;;;;;;6186410;23;20467;-77
2023/03/05 09:29:44;;;;;;;0.57;0.30;;;;;;;;;;6186689;23;20047;-77
2023/03/05 09:32:10;;;;;;;2.63;0.30;;;;;;;;;;6186810;23;20001;-77
2023/03/05 09:34:36;;;;;;;1.80;0.35;;;;;;;;;;6186837;23;20001;-77
2023/03/05 09:37:02;;;;;;;1.35;0.30;;;;;;;;;;6186729;23;20002;-78
2023/03/05 09:39:29;;;;;;;2.15;0.30;;;;;;;;;;6186259;23;20009;-78
2023/03/05 09:41:55;;;;;;;1.10;0.20;;;;;;;;;;6186431;23;20031;-77
2023/03/05 09:44:23;;;;;;;0.63;0.10;;;;;;;;;;6189035;23;20569;-77
2023/03/05 09:47:16;;;;;;;0.98;0.40;;;;;;;;;;6189480;23;20490;-77
2023/03/05 09:49:50;;;;;;;2.70;0.20;;;;;;;;;;6143128;23;20464;-77
2023/03/05 09:52:30;;;;;;;2.20;0.20;;;;;;;;;;6187217;23;20001;-77
2023/03/05 09:54:57;;;;;;;2.25;0.60;;;;;;;;;;6187110;23;20013;-77
2023/03/05 09:57:35;;;;;;;2.35;0.40;;;;;;;;;;6160533;23;20115;-78
2023/03/05 10:00:07;;;;;;;3.53;0.50;;;;;;;;;;6186942;23;20008;-77
2023/03/05 10:02:35;;;;;;;2.92;0.50;;;;;;;;;;6187245;23;20088;-78
2023/03/05 10:05:12;;;;;;;3.50;0.40;;;;;;;;;;6186874;23;20047;-77
2023/03/05 10:07:39;;;;;;;1.23;0.60;;;;;;;;;;6186893;23;20001;-78
2023/03/05 10:10:15;;;;;;;5.95;1.08;;;;;;;;;;6186958;23;20016;-78
2023/03/05 10:12:45;;;;;;;4.10;0.47;;;;;;;;;;6186764;23;20019;-77
2023/03/05 10:15:24;;;;;;;3.60;0.52;;;;;;;;;;6160226;23;20059;-78
2023/03/05 10:18:25;;;;;;;3.22;0.40;;;;;;;;;;6186588;23;20012;-78
2023/03/05 10:21:17;;;;;;;3.65;0.63;;;;;;;;;;6065877;23;20046;-77
2023/03/05 10:23:51;;;;;;;3.63;0.30;;;;;;;;;;6179939;23;20592;-77
2023/03/05 10:26:17;;;;;;;0.50;0.30;;;;;;;;;;6186708;23;20001;-78
2023/03/05 10:28:47;;;;;;;1.83;0.30;;;;;;;;;;6160142;23;20108;-77
2023/03/05 10:31:33;;;;;;;6.10;0.70;;;;;;;;;;6186510;23;20307;-77
2023/03/05 10:34:08;;;;;;;3.97;0.63;;;;;;;;;;6186926;23;20055;-78
2023/03/05 10:36:44;;;;;;;3.95;0.80;;;;;;;;;;6186374;23;20035;-77
2023/03/05 10:39:11;;;;;;;3.38;0.50;;;;;;;;;;6186756;23;20088;-78
2023/03/05 10:41:40;;;;;;;2.13;0.50;;;;;;;;;;6186406;23;20132;-77
2023/03/05 10:44:20;;;;;;;3.55;0.50;;;;;;;;;;6186972;23;20319;-77
2023/03/05 10:46:46;;;;;;;;;;;;;;;;;;6187221;23;19997;-78
2023/03/05 10:49:28;;;;;;;3.30;0.30;;;;;;;;;;6186908;23;19907;-78
2023/03/05 10:52:17;;;;;;;4.47;0.60;;;;;;;;;;6186420;23;20004;-78
2023/03/05 10:54:43;;;;;;;0.95;0.28;;;;;;;;;;6170740;23;20029;-78
2023/03/05 10:57:09;;;;;;;0.88;0.43;;;;;;;;;;6186303;23;20001;-77
2023/03/05 10:59:35;;;;;;;2.38;0.45;;;;;;;;;;6186479;23;20296;-78
2023/03/05 11:02:03;;;;;;;1.90;0.50;;;;;;;;;;6186326;23;19997;-78
2023/03/05 11:04:34;;;;;;;6.15;0.43;;;;;;;;;;6186266;23;20028;-77
2023/03/05 11:07:05;;;;;;;0.47;0.25;;;;;;;;;;6186090;23;20461;-77
2023/03/05 11:09:31;;;;;;;;;;;;;;;;;;6186896;23;19997;-77
2023/03/05 11:11:57;;;;;;;5.97;0.50;;;;;;;;;;6186138;23;20303;-77
2023/03/05 11:14:29;;;;;;;1.02;0.20;;;;;;;;;;6186616;23;20019;-78
2023/03/05 11:16:56;;;;;;;2.80;0.47;;;;;;;;;;6187138;23;20016;-78
2023/03/05 11:19:34;;;;;;;4.28;0.70;;;;;;;;;;6186356;23;20005;-78
2023/03/05 11:22:19;;;;;;;5.72;0.40;;;;;;;;;;6186506;23;20046;-78
2023/03/05 11:25:08;;;;;;;3.15;0.75;;;;;;;;;;6186106;23;20001;-77
2023/03/05 11:27:36;;;;;;;2.80;0.30;;;;;;;;;;6172976;23;20005;-79
2023/03/05 11:30:02;;;;;;;3.67;0.38;;;;;;;;;;6187471;23;20001;-79
2023/03/05 11:32:29;;;;;;;5.35;0.52;;;;;;;;;;6187451;23;20076;-78
2023/03/05 11:34:56;;;;;;;1.88;0.43;;;;;;;;;;6186501;23;20072;-78
2023/03/05 11:37:27;;;;;;;6.43;0.95;;;;;;;;;;6185739;23;20001;-79
2023/03/05 11:40:05;;;;;;;6.85;1.33;;;;;;;;;;6186299;23;20001;-78
2023/03/05 11:42:34;;;;;;;1.30;0.25;;;;;;;;;;6186243;23;20001;-80
2023/03/05 11:45:00;;;;;;;6.85;1.10;;;;;;;;;;6187956;23;19997;-81
2023/03/05 11:47:49;;;;;;;4.93;2.25;;;;;;;;;;6186420;23;20439;-78
2023/03/05 11:50:16;;;;;;;2.88;0.85;;;;;;;;;;6171119;23;20438;-78
2023/03/05 11:52:47;;;;;;;2.40;0.85;;;;;;;;;;6185995;23;19997;-77
2023/03/05 11:55:18;;;;;;;2.40;0.40;;;;;;;;;;6185770;23;20024;-77
2023/03/05 11:58:04;;;;;;;4.65;0.68;;;;;;;;;;6158469;23;20051;-77
2023/03/05 12:00:31;;;;;;;1.50;0.68;;;;;;;;;;6186233;23;20005;-77
2023/03/05 12:03:13;;;;;;;3.42;0.85;;;;;;;;;;6185194;23;20320;-77
2023/03/05 12:05:41;;;;;;;2.85;0.63;;;;;;;;;;6185765;23;20008;-77
2023/03/05 12:08:11;;;;;;;0.90;0.22;;;;;;;;;;6186025;23;20587;-78
2023/03/05 12:10:37;;;;;;;0.93;0.45;;;;;;;;;;6183977;23;20032;-78
2023/03/05 12:13:11;;;;;;;3.17;0.38;;;;;;;;;;6184927;23;20340;-77
2023/03/05 12:15:55;;;;;;;6.05;0.52;;;;;;;;;;6185033;23;20056;-77
2023/03/05 12:18:24;;;;;;;1.65;0.30;;;;;;;;;;6157717;23;20347;-77
2023/03/05 12:20:56;;;;;;;2.00;0.30;;;;;;;;;;6184614;23;20001;-77
2023/03/05 12:23:25;;;;;;;4.78;0.57;;;;;;;;;;6185038;23;20032;-77
2023/03/05 12:25:54;;;;;;;3.30;0.35;;;;;;;;;;6185501;23;20031;-77
2023/03/05 12:28:28;;;;;;;2.40;0.43;;;;;;;;;;6185710;23;20005;-77
2023/03/05 12:30:56;;;;;;;1.98;0.40;;;;;;;;;;6184628;23;20000;-77
2023/03/05 12:33:28;;;;;;;0.73;0.25;;;;;;;;;;6184670;23;20009;-76
2023/03/05 12:36:14;;;;;;;1.13;0.35;;;;;;;;;;6184119;23;20001;-77
2023/03/05 12:38:40;;;;;;;1.50;0.50;;;;;;;;;;6185414;23;20020;-80
2023/03/05 12:41:33;;;;;;;4.88;0.30;;;;;;;;;;6182817;23;20001;-77
2023/03/05 12:44:05;;;;;;;3.10;0.40;;;;;;;;;;6183244;23;20408;-77
2023/03/05 12:46:35;;;;;;;1.17;0.40;;;;;;;;;;6183388;23;19993;-78
2023/03/05 12:49:20;;;;;;;3.38;0.47;;;;;;;;;;6185101;23;20001;-78
2023/03/05 12:51:46;;;;;;;3.00;0.40;;;;;;;;;;6186093;23;20032;-79
2023/03/05 12:54:21;;;;;;;3.22;0.82;;;;;;;;;;6185362;23;20040;-79
2023/03/05 12:56:47;;;;;;;1.08;0.28;;;;;;;;;;6186151;23;20004;-78
2023/03/05 12:59:15;;;;;;;4.07;0.60;;;;;;;;;;6186741;23;20012;-79
2023/03/05 13:01:45;;;;;;;1.65;0.32;;;;;;;;;;6185855;23;20011;-78
2023/03/05 13:04:13;;;;;;;;;;;;;;;;;;6186710;23;20137;-78
2023/03/05 13:06:39;;;;;;;1.75;0.30;;;;;;;;;;6185958;23;20036;-78
2023/03/05 13:09:16;;;;;;;4.13;1.02;;;;;;;;;;6186845;23;19997;-79
2023/03/05 13:11:45;;;;;;;2.67;0.63;;;;;;;;;;6185790;23;20042;-78
2023/03/05 13:14:29;;;;;;;4.22;0.40;;;;;;;;;;6185925;23;20051;-79
2023/03/05 13:16:55;;;;;;;1.98;0.50;;;;;;;;;;6185783;23;19996;-79
2023/03/05 13:19:22;;;;;;;3.13;0.50;;;;;;;;;;6185079;23;20221;-79
2023/03/05 13:21:57;;;;;;;2.65;0.40;;;;;;;;;;6159554;23;20005;-79
2023/03/05 13:24:23;;;;;;;4.60;0.68;;;;;;;;;;6190685;23;19997;-81
2023/03/05 13:26:48;;;;;;;3.67;1.25;;;;;;;;;;6185188;23;20434;-81
2023/03/05 13:29:16;;;;;;;2.75;0.40;;;;;;;;;;6189585;23;20005;-81
2023/03/05 13:31:50;;;;;;;2.25;0.35;;;;;;;;;;6189018;23;20036;-81
2023/03/05 13:34:16;;;;;;;3.10;0.65;;;;;;;;;;6186218;23;19997;-78
2023/03/05 13:37:03;;;;;;;1.08;0.60;;;;;;;;;;6187133;23;20024;-79
2023/03/05 13:39:30;;;;;;;3.00;0.77;;;;;;;;;;6159710;23;20047;-79
2023/03/05 13:42:01;;;;;;;3.22;0.85;;;;;;;;;;6187680;23;19997;-79
2023/03/05 13:44:28;;;;;;;4.65;0.90;;;;;;;;;;6188548;23;20001;-78
2023/03/05 13:47:05;;;;;;;3.65;0.70;;;;;;;;;;6159616;23;20009;-79
2023/03/05 13:49:31;;;;;;;3.30;0.55;;;;;;;;;;6160565;23;20001;-79
2023/03/05 13:51:59;;;;;;;3.80;0.55;;;;;;;;;;6186765;23;20001;-79
2023/03/05 13:54:26;;;;;;;1.48;0.30;;;;;;;;;;6186612;23;20013;-81
2023/03/05 13:56:59;;;;;;;1.77;0.70;;;;;;;;;;6162209;23;20063;-81
2023/03/05 13:59:37;;;;;;;0.68;0.60;;;;;;;;;;6187355;23;20374;-81
2023/03/05 14:02:12;;;;;;;1.70;0.80;;;;;;;;;;6186324;23;20024;-81
2023/03/05 14:04:40;;;;;;;1.38;0.70;;;;;;;;;;6188784;23;20011;-81
2023/03/05 14:07:25;;;;;;;4.45;0.82;;;;;;;;;;6186342;23;20000;-81
2023/03/05 14:09:52;;;;;;;1.73;0.70;;;;;;;;;;6185718;23;20028;-81
2023/03/05 14:12:49;;;;;;;2.05;0.80;;;;;;;;;;6185595;23;20000;-79
2023/03/05 14:15:25;;;;;;;2.83;0.85;;;;;;;;;;6191775;23;19993;-79
2023/03/05 14:17:51;;;;;;;3.97;0.80;;;;;;;;;;6192469;23;20067;-80
2023/03/05 14:20:22;;;;;;;4.00;0.60;;;;;;;;;;6193068;23;20001;-79
2023/03/05 14:22:49;;;;;;;3.25;0.73;;;;;;;;;;6185034;23;20348;-78
2023/03/05 14:25:28;;;;;;;4.43;0.73;;;;;;;;;;6184554;23;20004;-78
2023/03/05 14:27:55;;;;;;;3.88;0.90;;;;;;;;;;6185014;23;20431;-78
2023/03/05 14:30:22;;;;;;;4.43;0.70;;;;;;;;;;6186010;23;20001;-80
2023/03/05 14:32:49;;;;;;;2.00;0.50;;;;;;;;;;6186195;23;20470;-79
2023/03/05 14:35:20;;;;;;;1.92;0.80;;;;;;;;;;6160113;23;20005;-80
2023/03/05 14:37:47;;;;;;;2.20;0.50;;;;;;;;;;6186044;23;20025;-79
2023/03/05 14:40:13;;;;;;;2.38;0.73;;;;;;;;;;6186110;23;20312;-80
2023/03/05 14:42:55;;;;;;;4.20;1.13;;;;;;;;;;6186007;23;20019;-79
2023/03/05 14:45:22;;;;;;;2.50;0.52;;;;;;;;;;6185545;23;20487;-79
2023/03/05 14:47:53;;;;;;;1.45;0.60;;;;;;;;;;6183931;23;20007;-80
2023/03/05 14:50:20;;;;;;;3.05;0.70;;;;;;;;;;6183881;23;20008;-80
2023/03/05 14:52:47;;;;;;;3.60;0.75;;;;;;;;;;6182642;23;20007;-78
2023/03/05 14:55:14;;;;;;;3.03;0.80;;;;;;;;;;6183676;23;20017;-79
2023/03/05 14:57:40;;;;;;;1.05;0.50;;;;;;;;;;6183455;23;20005;-79
2023/03/05 15:00:14;;;;;;;2.28;0.80;;;;;;;;;;6184263;23;20411;-79